Date,TemperatureHighF,TemperatureAvgF,TemperatureLowF,DewpointHighF,DewpointAvgF,DewpointLowF,HumidityHigh,HumidityAvg,HumidityLow,PressureMaxIn,PressureMinIn,WindSpeedMaxMPH,WindSpeedAvgMPH,GustSpeedMaxMPH,PrecipitationSumIn
2013-3-1,40.3,36.5,34.1,33.2,29.8,27.2,90,77,63,29.65,29.51,7,0,7,0.00
2013-3-2,44.1,37.0,30.1,28.5,26.7,25.3,82,67,52,29.65,29.59,6,0,6,0.00
2013-3-3,39.9,35.0,31.0,32.2,28.2,24.3,87,76,66,29.62,29.54,11,0,11,0.00
2013-3-4,39.5,33.7,30.1,27.9,23.0,20.8,86,65,51,29.70,29.54,17,3,17,0.00
2013-3-5,42.8,35.3,29.8,34.5,27.0,20.2,91,72,54,30.06,29.70,14,1,14,0.00
2013-3-6,39.6,37.3,34.7,35.7,31.8,26.0,94,80,65,30.12,30.03,33,6,33,0.13
2013-3-7,36.5,32.6,30.7,31.2,29.3,26.2,98,88,66,30.08,29.98,27,4,29,0.09
2013-3-8,42.5,34.1,29.1,33.7,26.1,2.2,100,77,27,30.14,29.93,22,2,22,0.21
2013-3-9,38.9,34.5,27.0,29.3,24.9,19.9,95,69,51,30.35,30.14,20,2,20,0.24
2013-3-10,40.1,33.3,25.4,32.9,28.7,23.8,96,84,65,30.41,30.30,10,1,10,0.00
2013-3-11,50.8,40.8,34.3,38.3,33.8,30.6,92,77,49,30.32,30.13,10,0,10,0.00
2013-3-12,50.4,45.4,38.2,49.8,44.1,36.5,100,95,86,30.15,29.70,13,1,13,0.24
2013-3-13,52.8,44.1,31.8,49.8,32.8,20.5,100,68,34,29.76,29.66,12,1,12,0.01
2013-3-14,37.8,31.8,22.7,23.8,15.6,3.4,74,52,33,29.80,29.66,16,2,16,0.00
2013-3-15,40.8,29.0,18.9,26.0,9.4,1.1,76,45,21,29.84,29.60,21,2,21,0.00
2013-3-16,38.6,32.4,27.6,26.4,13.1,5.5,78,46,26,29.87,29.63,12,1,12,0.00
2013-3-17,37.0,29.4,23.2,14.2,7.3,-1.0,62,41,22,30.32,29.87,14,1,14,0.00
2013-3-18,36.9,27.3,15.4,24.0,8.1,-3.1,76,45,28,30.46,30.25,11,0,11,0.00
2013-3-19,34.6,31.6,26.0,34.3,30.9,24.0,100,97,76,30.26,29.59,26,4,26,0.42
2013-3-20,37.9,30.2,24.8,25.5,21.6,17.0,98,72,45,29.80,29.67,23,2,23,0.29
2013-3-21,35.6,29.7,23.0,27.8,20.6,12.6,94,70,40,29.80,29.59,7,0,7,0.14
2013-3-22,40.2,33.2,27.9,27.0,19.5,12.8,94,59,34,29.70,29.58,13,1,13,0.06
2013-3-23,43.3,34.9,26.3,21.2,18.2,13.8,72,52,32,29.74,29.59,20,3,20,0.00
2013-3-24,47.4,37.8,30.7,28.5,22.9,19.3,80,56,34,29.79,29.71,12,1,12,0.00
2013-3-25,40.1,35.6,29.3,33.6,29.1,22.3,86,77,69,29.76,29.52,21,2,21,0.00
2013-3-26,51.6,40.4,30.9,32.6,22.8,14.8,92,54,25,29.75,29.52,15,1,17,0.04
2013-3-27,55.9,42.5,30.9,32.7,24.4,19.9,76,51,27,29.84,29.71,13,1,13,0.00
2013-3-28,47.4,41.3,36.2,34.9,32.0,27.9,92,71,49,29.99,29.84,15,1,15,0.03
2013-3-29,58.1,45.2,36.5,38.3,31.2,24.3,76,59,29,30.02,29.94,10,0,10,0.00
2013-3-30,56.9,44.4,31.2,31.2,27.2,13.7,85,54,20,30.08,29.98,12,0,12,0.00
2013-3-31,58.4,47.1,26.0,38.0,26.3,18.4,89,49,24,30.11,29.75,14,2,14,0.02